Gamaliel, AR (72537)

10:18 AM CDT on August 20, 2014 (GMT -0500)
Baxter County Regional | Change Station
CLOSE
Current Station
Airport
Location: Mountain Home,
Elevation: 925 ft
Nearby Weather Stations
Active Advisory: Special Statement

Elev 925 ft 36.37 °N, 92.47 °W | Updated 25 minutes ago

Clear
Clear
84 °F
Feels Like 89 °F
N
7
Wind Variable Wind from SW

Today
High -- | Low -- °F
--% Chance of Precip.
Yesterday
High -- | Low -- °F
Precip. -- in
6:31 AM 7:54 PM
Waning Crescent, 21% visible
Pressure 29.96 in
Visibility 9.0 miles
Clouds Clear
Heat Index 89 °F
Dew Point 71 °F
Humidity 65%
Rainfall 0.00 in
Snow Depth Not available.
UV 5 out of 12
Pollen 10.30 out of 12
Air Quality Not available.
Flu Activity Not available.
METAR KBPK 201453Z AUTO 23006KT 9SM CLR 29/22 A2999 RMK AO2 SLP144 T02890217 51015

More Conditions Fewer Conditions

Pressure 29.96 in
Visibility 9.0 miles
Clouds Clear
Heat Index 89 °F
Dew Point 71 °F
Humidity 65%
Rainfall 0.00 in
Snow Depth Not available.
UV 5 out of 12
Pollen 10.30 out of 12
Air Quality Not available.
Flu Activity Not available.
METAR KBPK 201453Z AUTO 23006KT 9SM CLR 29/22 A2999 RMK AO2 SLP144 T02890217 51015

More Conditions Fewer Conditions

10-Day Weather Forecast

Almanac

Astronomy

Aug. 20, 2014 Rise Set
Actual Time 6:31 AM CDT 7:54 PM CDT
Civil Twilight 6:04 AM CDT 8:20 PM CDT
Nautical Twilight 5:32 AM CDT 8:53 PM CDT
Astronomical Twilight 4:58 AM CDT 9:26 PM CDT
Moon 2:15 AM CDT 4:36 PM CDT
Length of Visible Light 14h 16m
Length of Day
13h 22m
Tomorrow will be 2m 5s shorter.
Waning Crescent, 21% of the Moon is Illuminated
Today
Waning Crescent
Aug 25
New
Sep 2
First Quarter
Sep 8
Full
Sep 15
Last Quarter

Today's Extremes

State Highs State Lows

Community

WunderPhotos

Upload Photos

1,745,661 photos uploaded!

Nearby

Snow Depth

Station Depth Elevation
No new snow has been reported.

Earthquake Activity

City Distance Mag. Time & Date
No recent earthquake activity has been reported nearby.
Minimum magnitude displayed is 2.5.

Coastal Water Temperatures

Place Temperature
No Stations Reporting

Nearby Weather Stations